Time;durP1;ratioP1;P1;durP2;ratioP2;P2;SDS_P1;SDS_P2;PMS_P1;PMS_P2;Temp;Humidity;BMP_temperature;BMP_pressure;BME280_temperature;BME280_humidity;BME280_pressure;Samples;Min_cycle;Max_cycle;Signal;HPM_P1;HPM_P2
2022/03/26 00:01:04;;;;;;;32.97;22.73;;;8.30;67.10;;;;;;4994250;28;20185;-92
2022/03/26 00:03:30;;;;;;;33.23;22.53;;;8.30;67.20;;;;;;4991120;28;20649;-92
2022/03/26 00:05:55;;;;;;;36.67;22.87;;;8.30;66.80;;;;;;4997442;28;20655;-92
2022/03/26 00:08:21;;;;;;;36.53;21.90;;;8.20;67.90;;;;;;4986626;28;20442;-91
2022/03/26 00:10:47;;;;;;;31.60;20.33;;;8.10;68.30;;;;;;4988273;28;20184;-92
2022/03/26 00:13:13;;;;;;;31.33;22.60;;;8.10;68.10;;;;;;4989122;28;20212;-93
2022/03/26 00:15:39;;;;;;;31.90;21.50;;;8.10;68.10;;;;;;4987935;28;20180;-93
2022/03/26 00:18:05;;;;;;;31.93;20.43;;;8.20;68.90;;;;;;4996616;28;20439;-92
2022/03/26 00:20:30;;;;;;;30.37;19.97;;;8.20;69.00;;;;;;4992980;28;20850;-92
2022/03/26 00:22:58;;;;;;;35.27;22.47;;;8.20;68.10;;;;;;4995233;28;20188;-92
2022/03/26 00:25:27;;;;;;;31.47;20.90;;;8.10;68.30;;;;;;4997606;28;20440;-92
2022/03/26 00:27:52;;;;;;;31.20;20.67;;;8.20;69.20;;;;;;4998543;28;20195;-93
2022/03/26 00:30:18;;;;;;;28.80;21.00;;;8.10;69.20;;;;;;4991663;28;20431;-92
2022/03/26 00:32:46;;;;;;;32.40;21.43;;;8.00;69.50;;;;;;4997851;28;20226;-91
2022/03/26 00:35:12;;;;;;;30.03;21.73;;;7.90;68.90;;;;;;4992880;28;20608;-91
2022/03/26 00:37:41;;;;;;;29.83;21.37;;;7.70;69.70;;;;;;4998725;28;20506;-92
2022/03/26 00:40:07;;;;;;;30.83;21.40;;;7.40;71.20;;;;;;4986980;28;20205;-93
2022/03/26 00:42:36;;;;;;;28.00;19.40;;;7.10;71.50;;;;;;4991614;28;20468;-93
2022/03/26 00:45:10;;;;;;;30.83;21.70;;;7.10;73.80;;;;;;5007896;28;20436;-93
2022/03/26 00:47:44;;;;;;;33.83;21.33;;;6.80;74.50;;;;;;4996224;28;20446;-92
2022/03/26 00:50:10;;;;;;;29.37;21.53;;;6.80;75.50;;;;;;4999198;28;20816;-91
2022/03/26 00:52:36;;;;;;;31.00;20.80;;;7.00;75.40;;;;;;4993088;28;20447;-91
2022/03/26 00:55:03;;;;;;;30.23;20.17;;;7.10;75.10;;;;;;4992169;28;20969;-90
2022/03/26 00:57:29;;;;;;;34.30;21.27;;;7.30;75.10;;;;;;4987238;28;20610;-93
2022/03/26 00:59:54;;;;;;;32.03;20.93;;;7.30;75.60;;;;;;4994003;28;21032;-93
2022/03/26 01:02:20;;;;;;;31.23;19.90;;;7.30;76.40;;;;;;4987756;28;20172;-93
2022/03/26 01:04:45;;;;;;;28.57;19.27;;;7.30;77.10;;;;;;4995224;28;20182;-94
2022/03/26 01:07:11;;;;;;;31.00;20.57;;;7.20;76.80;;;;;;4987460;28;20212;-91
2022/03/26 01:09:37;;;;;;;28.90;19.00;;;7.10;76.50;;;;;;5022804;28;20192;-93
2022/03/26 01:12:03;;;;;;;29.67;20.60;;;7.00;76.70;;;;;;4996160;28;20182;-93
2022/03/26 01:14:31;;;;;;;28.93;19.57;;;6.90;77.60;;;;;;4996829;28;20307;-93
2022/03/26 01:17:00;;;;;;;33.20;22.00;;;6.90;77.10;;;;;;4995970;28;20697;-93
2022/03/26 01:19:26;;;;;;;31.80;20.03;;;6.90;77.30;;;;;;4997557;28;20445;-93
2022/03/26 01:21:51;;;;;;;30.90;19.70;;;6.90;77.80;;;;;;4995728;28;20439;-92
2022/03/26 01:24:17;;;;;;;30.70;21.00;;;6.90;77.60;;;;;;4999756;28;20184;-93
2022/03/26 01:26:43;;;;;;;30.50;19.80;;;6.80;77.60;;;;;;5001766;28;20209;-94
2022/03/26 01:29:09;;;;;;;29.97;20.03;;;6.80;77.30;;;;;;4999533;28;20723;-93
2022/03/26 01:31:35;;;;;;;27.00;18.60;;;6.80;78.80;;;;;;5002983;28;20446;-93
2022/03/26 01:34:01;;;;;;;28.90;20.00;;;6.90;78.90;;;;;;4995894;28;20480;-93
2022/03/26 01:36:28;;;;;;;28.87;19.70;;;6.80;77.90;;;;;;5000948;28;20439;-92
2022/03/26 01:38:56;;;;;;;30.63;19.10;;;6.90;78.40;;;;;;4994949;28;20469;-92
2022/03/26 01:41:22;;;;;;;27.83;18.87;;;6.90;78.70;;;;;;5001731;28;20442;-93
2022/03/26 01:43:50;;;;;;;27.53;19.80;;;6.90;78.60;;;;;;5000556;28;20424;-93
2022/03/26 01:46:16;;;;;;;29.50;19.40;;;7.00;78.50;;;;;;5001071;28;20438;-93
2022/03/26 01:48:44;;;;;;;27.30;18.10;;;7.00;78.60;;;;;;4993646;28;20238;-91
2022/03/26 01:51:16;;;;;;;28.87;18.53;;;6.80;78.00;;;;;;4989699;28;20189;-92
2022/03/26 01:53:44;;;;;;;27.87;18.90;;;6.80;78.70;;;;;;4995683;28;20486;-92
2022/03/26 01:56:11;;;;;;;29.70;19.77;;;6.80;78.50;;;;;;4993537;28;20464;-91
2022/03/26 01:58:37;;;;;;;28.00;18.53;;;6.70;79.10;;;;;;4994268;28;20845;-91
2022/03/26 02:01:02;;;;;;;30.70;19.80;;;6.60;79.40;;;;;;4990744;28;20470;-92
2022/03/26 02:03:30;;;;;;;27.93;18.43;;;6.50;79.50;;;;;;4985462;28;20460;-90
2022/03/26 02:05:56;;;;;;;27.27;17.73;;;6.40;80.70;;;;;;4986571;28;20448;-92
2022/03/26 02:08:22;;;;;;;24.47;16.83;;;6.30;81.10;;;;;;4992960;28;20536;-92
2022/03/26 02:10:48;;;;;;;30.20;19.73;;;6.10;81.50;;;;;;4991625;28;20208;-92
2022/03/26 02:13:14;;;;;;;31.77;18.87;;;6.00;83.10;;;;;;4996540;28;20465;-92
2022/03/26 02:15:40;;;;;;;29.30;19.20;;;6.00;83.30;;;;;;4985848;28;20182;-91
2022/03/26 02:18:06;;;;;;;30.33;19.30;;;6.10;84.70;;;;;;4998546;28;20457;-92
2022/03/26 02:20:32;;;;;;;32.93;20.17;;;6.20;84.00;;;;;;4994733;28;20189;-93
2022/03/26 02:22:57;;;;;;;29.73;20.03;;;6.20;85.00;;;;;;4991318;28;20497;-93
2022/03/26 02:25:23;;;;;;;30.97;20.17;;;6.20;84.80;;;;;;4988879;28;20546;-90
2022/03/26 02:27:49;;;;;;;33.33;20.10;;;6.30;84.70;;;;;;4997203;28;20650;-92
2022/03/26 02:30:25;;;;;;;31.90;20.10;;;6.30;84.70;;;;;;5004219;28;20208;-92
2022/03/26 02:32:51;;;;;;;33.67;21.60;;;6.20;84.50;;;;;;4987974;28;20555;-91
2022/03/26 02:35:17;;;;;;;30.67;19.80;;;6.20;85.00;;;;;;4995501;28;20212;-93
2022/03/26 02:37:44;;;;;;;28.70;18.53;;;6.20;84.80;;;;;;5005395;28;20186;-93
2022/03/26 02:40:10;;;;;;;25.43;19.30;;;6.20;84.80;;;;;;5000574;28;20458;-92
2022/03/26 02:42:36;;;;;;;29.20;19.20;;;6.20;85.10;;;;;;4994162;28;20192;-94
2022/03/26 02:45:03;;;;;;;36.97;19.87;;;6.20;85.20;;;;;;4990147;28;20575;-91
2022/03/26 02:47:29;;;;;;;28.73;19.20;;;6.20;85.90;;;;;;4989764;28;20432;-91
2022/03/26 02:49:58;;;;;;;24.27;17.87;;;6.20;87.00;;;;;;4982404;28;20437;-92
2022/03/26 02:52:24;;;;;;;33.47;19.93;;;5.90;86.80;;;;;;4982268;28;20571;-92
2022/03/26 02:54:50;;;;;;;32.37;18.97;;;5.80;88.60;;;;;;4978521;28;20453;-92
2022/03/26 02:57:16;;;;;;;27.20;19.70;;;5.70;89.30;;;;;;4989990;28;20271;-91
2022/03/26 02:59:41;;;;;;;29.73;19.27;;;5.70;89.90;;;;;;4993097;28;21695;-90
2022/03/26 03:02:09;;;;;;;30.03;20.10;;;5.60;90.20;;;;;;4987790;28;20715;-91
2022/03/26 03:04:38;;;;;;;28.20;19.60;;;5.60;90.40;;;;;;4995045;28;20215;-93
2022/03/26 03:07:06;;;;;;;27.20;19.03;;;5.50;90.60;;;;;;4984560;28;20456;-91
2022/03/26 03:09:32;;;;;;;28.57;19.43;;;5.50;90.70;;;;;;5002487;28;20539;-93
2022/03/26 03:11:58;;;;;;;29.60;20.30;;;5.50;90.90;;;;;;4980052;28;20539;-92
2022/03/26 03:14:24;;;;;;;30.30;20.50;;;5.50;91.10;;;;;;4989083;28;20777;-92
2022/03/26 03:16:49;;;;;;;30.73;20.90;;;5.30;90.70;;;;;;4990345;28;20443;-91
2022/03/26 03:19:15;;;;;;;29.80;20.23;;;5.30;91.30;;;;;;4991860;28;20181;-92
2022/03/26 03:21:41;;;;;;;29.53;20.23;;;5.20;91.70;;;;;;4995743;28;20221;-92
2022/03/26 03:24:07;;;;;;;36.03;20.03;;;5.20;91.80;;;;;;4996104;28;20540;-92
2022/03/26 03:26:32;;;;;;;29.37;20.00;;;5.00;92.20;;;;;;4994786;28;20448;-92
2022/03/26 03:28:59;;;;;;;28.93;18.80;;;5.00;92.40;;;;;;4993506;28;20649;-92
2022/03/26 03:31:25;;;;;;;30.60;19.93;;;4.90;92.70;;;;;;4985232;28;20208;-92
2022/03/26 03:33:51;;;;;;;28.73;18.70;;;4.90;92.60;;;;;;4994363;28;20470;-92
2022/03/26 03:36:16;;;;;;;30.67;18.60;;;4.90;93.10;;;;;;4988552;28;20791;-92
2022/03/26 03:38:42;;;;;;;32.50;19.57;;;4.80;93.20;;;;;;4999523;28;20180;-91
2022/03/26 03:41:08;;;;;;;27.97;18.30;;;4.80;93.30;;;;;;4991904;28;20274;-92
2022/03/26 03:43:34;;;;;;;30.03;17.80;;;4.90;93.70;;;;;;4994081;28;20193;-92
2022/03/26 03:45:59;;;;;;;27.43;19.43;;;4.70;94.50;;;;;;4989247;28;20437;-93
2022/03/26 03:48:25;;;;;;;27.90;18.23;;;4.80;94.50;;;;;;4998921;28;20181;-94
2022/03/26 03:50:56;;;;;;;26.27;17.80;;;4.90;94.60;;;;;;4992573;28;20183;-94
2022/03/26 03:53:21;;;;;;;26.30;17.33;;;5.00;94.10;;;;;;4997283;28;20730;-92
2022/03/26 03:55:47;;;;;;;31.03;18.33;;;5.00;94.10;;;;;;4992775;28;20523;-92
2022/03/26 03:58:12;;;;;;;24.37;17.63;;;5.00;94.00;;;;;;4996226;28;20180;-93
2022/03/26 04:00:38;;;;;;;29.93;18.97;;;5.00;93.70;;;;;;4989757;28;20198;-93
2022/03/26 04:03:04;;;;;;;27.50;18.40;;;4.90;93.50;;;;;;4995691;28;20187;-92
2022/03/26 04:05:29;;;;;;;29.30;19.07;;;4.80;93.40;;;;;;4994070;28;20265;-92
2022/03/26 04:07:55;;;;;;;29.47;19.20;;;4.70;93.40;;;;;;4996800;28;20218;-93
2022/03/26 04:10:20;;;;;;;30.70;18.37;;;4.50;93.80;;;;;;4987391;28;20196;-91
2022/03/26 04:12:46;;;;;;;29.60;18.43;;;4.50;94.30;;;;;;4983088;28;20223;-90
2022/03/26 04:15:14;;;;;;;29.50;18.93;;;4.30;95.00;;;;;;4978978;28;20204;-91
2022/03/26 04:17:39;;;;;;;30.07;20.57;;;4.20;95.90;;;;;;4982204;28;20845;-91
2022/03/26 04:20:08;;;;;;;29.07;17.77;;;4.30;96.00;;;;;;4976420;28;20456;-90
2022/03/26 04:22:34;;;;;;;23.43;16.90;;;4.30;96.30;;;;;;4976605;28;20643;-90
2022/03/26 04:25:00;;;;;;;30.20;18.00;;;4.30;96.50;;;;;;4977916;28;20835;-90
2022/03/26 04:27:25;;;;;;;29.23;18.87;;;4.30;96.50;;;;;;4984992;28;20510;-92
2022/03/26 04:29:51;;;;;;;27.90;18.50;;;4.40;96.50;;;;;;4982710;28;20532;-91
2022/03/26 04:32:17;;;;;;;26.57;16.80;;;4.40;96.60;;;;;;4977157;28;20183;-91
2022/03/26 04:34:42;;;;;;;25.37;17.60;;;4.40;96.30;;;;;;4978099;28;20235;-91
2022/03/26 04:37:10;;;;;;;29.23;17.40;;;4.20;96.10;;;;;;4977105;28;20443;-93
2022/03/26 04:39:37;;;;;;;26.10;17.60;;;4.20;96.70;;;;;;4981383;28;20460;-92
2022/03/26 04:42:03;;;;;;;25.80;16.50;;;4.10;96.20;;;;;;4980697;28;20501;-92
2022/03/26 04:44:29;;;;;;;24.90;16.93;;;4.10;96.00;;;;;;4983435;28;20684;-92
2022/03/26 04:46:57;;;;;;;25.80;17.97;;;4.10;96.20;;;;;;4988210;28;20182;-92
2022/03/26 04:49:23;;;;;;;32.17;18.93;;;4.10;96.40;;;;;;4984735;28;20181;-92
2022/03/26 04:51:49;;;;;;;30.77;17.77;;;4.00;97.20;;;;;;4978834;28;20432;-90
2022/03/26 04:54:25;;;;;;;27.73;18.90;;;4.00;97.50;;;;;;5001115;28;20545;-92
2022/03/26 04:57:13;;;;;;;28.70;18.43;;;4.00;97.70;;;;;;4996418;28;20952;-93
2022/03/26 04:59:42;;;;;;;31.80;17.93;;;4.00;97.70;;;;;;4981865;28;20331;-93
2022/03/26 05:02:10;;;;;;;28.47;17.93;;;3.90;97.60;;;;;;4995700;28;20462;-93
2022/03/26 05:04:36;;;;;;;26.97;18.23;;;3.90;97.40;;;;;;4988737;28;20596;-93
2022/03/26 05:07:45;;;;;;;29.97;19.27;;;3.90;97.30;;;;;;4983536;28;21209;-91
2022/03/26 05:09:55;;;;;;;27.10;17.43;;;3.90;97.80;;;;;;5003966;28;20182;-94
2022/03/26 05:12:21;;;;;;;30.40;18.57;;;3.80;97.70;;;;;;4980222;28;20440;-95
2022/03/26 05:14:46;;;;;;;28.80;18.60;;;3.70;98.00;;;;;;4980073;28;20481;-86
2022/03/26 05:17:13;;;;;;;27.80;19.00;;;3.70;98.70;;;;;;4985296;28;20662;-92
2022/03/26 05:19:38;;;;;;;28.70;18.20;;;3.70;98.70;;;;;;5002963;28;20656;-91
2022/03/26 05:22:04;;;;;;;30.20;17.97;;;3.70;98.80;;;;;;4992893;28;20524;-90
2022/03/26 05:24:30;;;;;;;34.23;18.07;;;3.70;99.00;;;;;;4996383;28;20196;-91
2022/03/26 05:27:01;;;;;;;25.13;16.63;;;3.70;98.30;;;;;;4992416;28;20962;-90
2022/03/26 05:29:35;;;;;;;27.43;17.97;;;3.70;98.70;;;;;;4996035;28;20798;-91
2022/03/26 05:32:34;;;;;;;30.70;17.70;;;3.70;98.40;;;;;;4993169;28;20427;-91
2022/03/26 05:35:16;;;;;;;28.93;18.10;;;3.70;99.20;;;;;;4994820;28;20452;-88
2022/03/26 05:37:44;;;;;;;29.10;17.80;;;3.70;99.50;;;;;;4979679;28;20460;-90
2022/03/26 05:40:37;;;;;;;29.23;19.27;;;3.60;99.90;;;;;;4955646;28;20453;-91
2022/03/26 05:43:07;;;;;;;31.60;19.20;;;3.80;99.90;;;;;;4987853;28;20469;-90
2022/03/26 05:45:32;;;;;;;24.83;17.63;;;3.80;99.90;;;;;;4996717;28;20435;-91
2022/03/26 05:48:01;;;;;;;28.97;19.07;;;3.70;99.90;;;;;;5001564;28;20660;-91
2022/03/26 05:50:28;;;;;;;28.37;18.03;;;3.70;99.90;;;;;;4995789;28;20214;-91
2022/03/26 05:52:56;;;;;;;27.20;18.07;;;3.90;99.90;;;;;;5000820;28;20470;-89
2022/03/26 05:55:22;;;;;;;34.10;19.33;;;4.00;99.60;;;;;;5008763;28;20451;-93
2022/03/26 05:57:48;;;;;;;27.23;18.80;;;4.00;98.90;;;;;;5004046;28;20457;-92
2022/03/26 06:00:14;;;;;;;29.67;18.77;;;4.20;98.90;;;;;;4997660;28;20332;-92
2022/03/26 06:02:39;;;;;;;33.57;20.57;;;4.20;98.80;;;;;;4993853;28;20192;-93
2022/03/26 06:05:06;;;;;;;29.33;18.70;;;4.30;98.90;;;;;;4985370;28;21838;-91
2022/03/26 06:07:32;;;;;;;31.70;20.30;;;4.20;99.20;;;;;;4971605;28;20299;-93
2022/03/26 06:09:58;;;;;;;27.17;18.60;;;4.30;99.00;;;;;;4982442;28;20538;-90
2022/03/26 06:12:24;;;;;;;27.50;18.87;;;4.30;98.60;;;;;;4984313;28;20217;-89
2022/03/26 06:14:52;;;;;;;33.60;19.17;;;4.60;98.20;;;;;;4984730;28;20230;-90
2022/03/26 06:17:22;;;;;;;27.17;18.27;;;4.70;97.90;;;;;;4986105;28;20546;-92
2022/03/26 06:19:59;;;;;;;26.37;18.37;;;4.90;97.60;;;;;;4985326;28;20968;-90
2022/03/26 06:22:25;;;;;;;30.30;18.50;;;5.10;97.70;;;;;;4982670;28;21124;-90
2022/03/26 06:24:51;;;;;;;27.40;19.20;;;5.20;98.30;;;;;;4977578;28;20483;-88
2022/03/26 06:27:16;;;;;;;29.60;20.90;;;5.40;97.60;;;;;;4976461;28;21081;-89
2022/03/26 06:29:42;;;;;;;29.10;19.43;;;5.60;97.00;;;;;;4973645;28;20710;-89
2022/03/26 06:32:11;;;;;;;26.97;19.00;;;5.80;97.20;;;;;;4979562;28;20559;-89
2022/03/26 06:34:39;;;;;;;27.57;18.80;;;6.00;96.70;;;;;;4982321;28;20222;-90
2022/03/26 06:37:05;;;;;;;27.50;19.43;;;6.20;96.40;;;;;;4986539;28;20880;-93
2022/03/26 06:39:30;;;;;;;29.70;20.00;;;6.40;96.30;;;;;;4981552;28;20449;-93
2022/03/26 06:42:02;;;;;;;29.00;20.90;;;6.60;96.00;;;;;;4994733;28;20220;-89
2022/03/26 06:44:35;;;;;;;29.23;21.20;;;6.80;96.00;;;;;;4999236;28;20194;-94
2022/03/26 06:47:03;;;;;;;30.10;21.53;;;6.80;95.70;;;;;;4982418;28;20481;-91
2022/03/26 06:49:35;;;;;;;31.97;22.00;;;6.80;96.10;;;;;;4994641;28;20462;-92
2022/03/26 06:52:00;;;;;;;31.33;20.87;;;7.00;96.60;;;;;;5000504;28;20506;-94
2022/03/26 06:54:27;;;;;;;35.27;23.20;;;7.30;97.00;;;;;;4997532;28;21024;-87
2022/03/26 06:56:53;;;;;;;36.23;24.00;;;7.50;96.10;;;;;;4994629;28;20235;-94
2022/03/26 06:59:19;;;;;;;35.20;23.00;;;7.70;94.00;;;;;;4991447;28;20435;-90
2022/03/26 07:01:45;;;;;;;35.57;23.47;;;8.00;92.80;;;;;;4994265;28;20169;-95
2022/03/26 07:04:14;;;;;;;34.00;23.17;;;8.20;91.50;;;;;;5024198;28;20453;-96
2022/03/26 07:58:59;;;;;;;34.92;24.70;;;10.80;80.20;;;;;;5005930;28;20462;-92
2022/03/26 08:01:24;;;;;;;33.93;22.90;;;11.00;76.90;;;;;;4999760;28;20521;-89
2022/03/26 08:03:54;;;;;;;31.73;23.63;;;11.20;76.40;;;;;;4993335;28;21129;-90
2022/03/26 08:06:23;;;;;;;33.10;22.77;;;11.30;74.30;;;;;;4998307;28;21238;-91
2022/03/26 08:08:49;;;;;;;36.60;24.03;;;11.30;73.90;;;;;;5007623;28;21033;-92
2022/03/26 08:11:15;;;;;;;36.00;23.00;;;11.60;73.10;;;;;;4994482;28;20444;-92
2022/03/26 08:13:45;;;;;;;35.07;23.90;;;11.70;74.10;;;;;;5000696;28;20477;-91
2022/03/26 08:16:18;;;;;;;34.67;23.60;;;11.70;73.80;;;;;;4998541;28;20192;-91
2022/03/26 08:18:44;;;;;;;31.50;22.33;;;11.80;73.90;;;;;;5017394;28;20443;-96
2022/03/26 08:21:10;;;;;;;35.90;24.27;;;12.10;74.10;;;;;;5005969;28;20431;-93
2022/03/26 08:23:36;;;;;;;30.77;22.77;;;12.10;73.40;;;;;;5002631;28;20441;-93
2022/03/26 08:26:20;;;;;;;35.47;24.30;;;12.10;72.70;;;;;;5005543;28;20188;-91
2022/03/26 08:28:59;;;;;;;34.13;23.50;;;12.20;72.40;;;;;;5001106;28;20452;-92
2022/03/26 08:31:36;;;;;;;33.33;22.97;;;12.30;71.70;;;;;;5000390;28;20515;-94
2022/03/26 08:34:02;;;;;;;37.07;25.07;;;12.40;72.80;;;;;;5021896;28;20486;-92
2022/03/26 08:36:28;;;;;;;32.73;23.40;;;12.60;70.60;;;;;;5007930;28;20439;-93
2022/03/26 08:38:54;;;;;;;34.27;23.30;;;12.50;70.20;;;;;;5017710;28;20455;-93
2022/03/26 08:41:21;;;;;;;35.20;23.77;;;12.70;70.80;;;;;;4994639;28;20547;-95
2022/03/26 08:43:49;;;;;;;33.90;24.20;;;12.90;69.80;;;;;;5002529;28;20196;-93
2022/03/26 08:46:15;;;;;;;40.00;24.23;;;13.10;67.30;;;;;;5002316;28;20483;-91
2022/03/26 08:48:41;;;;;;;32.90;24.40;;;13.40;69.00;;;;;;4999527;28;20555;-91
2022/03/26 08:51:06;;;;;;;31.67;22.47;;;13.50;67.60;;;;;;4992633;28;20189;-92
2022/03/26 08:53:32;;;;;;;33.63;23.60;;;13.70;65.70;;;;;;4969449;28;20212;-90
2022/03/26 08:56:01;;;;;;;38.27;25.80;;;13.70;65.40;;;;;;4994603;28;20207;-90
2022/03/26 08:58:26;;;;;;;33.47;24.40;;;13.90;65.50;;;;;;5001779;28;20724;-88
2022/03/26 09:00:55;;;;;;;39.20;25.30;;;14.00;65.10;;;;;;4995219;28;20439;-90
2022/03/26 09:03:21;;;;;;;35.70;24.97;;;14.10;65.40;;;;;;4995901;28;21664;-90
2022/03/26 09:05:48;;;;;;;33.03;24.30;;;14.00;65.30;;;;;;5017360;28;20447;-88
2022/03/26 09:08:14;;;;;;;40.90;25.47;;;14.00;66.30;;;;;;4988524;28;21008;-90
2022/03/26 09:10:39;;;;;;;33.00;24.00;;;14.20;63.30;;;;;;4991849;28;20463;-90
2022/03/26 09:13:05;;;;;;;36.83;25.13;;;14.30;66.80;;;;;;5002193;28;20384;-94
2022/03/26 09:15:30;;;;;;;36.87;25.40;;;14.60;67.50;;;;;;5009034;28;20192;-92
2022/03/26 09:17:57;;;;;;;33.37;24.30;;;14.60;62.50;;;;;;5002807;28;20192;-93
2022/03/26 09:20:22;;;;;;;33.97;23.67;;;14.80;64.90;;;;;;5008586;28;20189;-90
2022/03/26 09:22:48;;;;;;;31.33;23.13;;;14.80;62.60;;;;;;4998026;28;20458;-86
2022/03/26 09:25:23;;;;;;;37.33;24.80;;;14.90;60.90;;;;;;5020276;28;20239;-94
2022/03/26 09:27:49;;;;;;;34.80;25.30;;;15.20;59.30;;;;;;5024409;28;20535;-93
2022/03/26 09:30:16;;;;;;;31.10;23.57;;;15.40;59.30;;;;;;5020433;28;20510;-93
2022/03/26 09:32:44;;;;;;;35.00;25.70;;;15.50;63.50;;;;;;5004884;28;21149;-92
2022/03/26 09:35:11;;;;;;;31.73;24.47;;;15.80;62.10;;;;;;5006432;28;20803;-93
2022/03/26 09:37:37;;;;;;;32.93;24.23;;;15.70;59.00;;;;;;5004328;28;20471;-92
2022/03/26 09:40:04;;;;;;;34.67;26.00;;;15.70;62.90;;;;;;5004515;28;20455;-93
2022/03/26 09:42:31;;;;;;;30.03;24.23;;;15.90;58.10;;;;;;5003788;28;20185;-92
2022/03/26 09:44:57;;;;;;;35.17;25.50;;;16.10;59.10;;;;;;5020693;28;20523;-92
2022/03/26 09:47:38;;;;;;;35.57;25.23;;;16.00;57.30;;;;;;4999593;28;20530;-90
2022/03/26 09:50:06;;;;;;;36.40;24.37;;;16.30;57.40;;;;;;5004703;28;20853;-92
2022/03/26 09:52:32;;;;;;;33.03;25.77;;;16.40;57.50;;;;;;4983015;28;20443;-86
2022/03/26 09:54:58;;;;;;;31.40;24.33;;;16.70;54.80;;;;;;4994737;28;20508;-92
2022/03/26 09:57:23;;;;;;;32.40;25.37;;;16.90;55.50;;;;;;4995120;28;20190;-91
2022/03/26 10:00:00;;;;;;;38.53;26.23;;;16.70;54.20;;;;;;4999011;28;20188;-93
2022/03/26 10:02:46;;;;;;;36.50;25.27;;;16.60;55.50;;;;;;4996027;28;20725;-93
2022/03/26 10:05:17;;;;;;;34.43;26.10;;;16.50;55.20;;;;;;5022267;28;20424;-93
2022/03/26 10:07:44;;;;;;;38.50;26.27;;;16.80;56.40;;;;;;5003730;28;20449;-93
2022/03/26 10:10:21;;;;;;;38.00;27.23;;;17.00;55.20;;;;;;5000584;28;20468;-92
2022/03/26 10:12:53;;;;;;;36.63;25.20;;;17.30;53.50;;;;;;5000983;28;20963;-92
2022/03/26 10:15:31;;;;;;;35.43;25.63;;;17.80;53.20;;;;;;5004305;28;20485;-94
2022/03/26 10:18:08;;;;;;;36.03;25.10;;;17.60;52.50;;;;;;5001792;28;20446;-93
2022/03/26 10:21:00;;;;;;;33.50;24.73;;;17.70;55.50;;;;;;4997247;28;20477;-92
2022/03/26 10:23:29;;;;;;;36.43;26.50;;;18.00;52.20;;;;;;4989824;28;20450;-93
2022/03/26 10:26:26;;;;;;;34.23;25.87;;;18.20;53.00;;;;;;4999002;28;20616;-94
2022/03/26 10:29:04;;;;;;;32.77;24.40;;;18.40;51.90;;;;;;5006411;28;20436;-95
2022/03/26 10:34:19;;;;;;;33.40;26.00;;;18.00;51.10;;;;;;5007843;28;20594;-95
2022/03/26 10:36:46;;;;;;;36.40;27.83;;;17.90;51.90;;;;;;4996344;28;21342;-94
2022/03/26 10:39:39;;;;;;;33.10;25.13;;;18.00;52.10;;;;;;4999341;28;20447;-96
2022/03/26 10:42:05;;;;;;;31.57;25.40;;;17.90;51.10;;;;;;5006664;28;21019;-95
2022/03/26 10:44:48;;;;;;;30.03;24.40;;;18.30;51.60;;;;;;4998957;28;21291;-95
2022/03/26 10:47:15;;;;;;;34.10;24.50;;;18.30;49.90;;;;;;5000818;28;20444;-95
2022/03/26 10:49:41;;;;;;;31.87;25.03;;;18.50;49.50;;;;;;4999400;28;20562;-95
2022/03/26 10:52:12;;;;;;;27.90;22.63;;;18.50;47.70;;;;;;4993922;28;20507;-93
2022/03/26 10:54:38;;;;;;;31.97;23.93;;;18.60;47.30;;;;;;5021607;28;20487;-95
2022/03/26 10:57:05;;;;;;;33.20;25.40;;;18.70;47.90;;;;;;5010737;28;20447;-96
2022/03/26 10:59:31;;;;;;;31.17;24.20;;;18.90;48.30;;;;;;5014007;28;20195;-95
2022/03/26 11:02:08;;;;;;;35.47;25.27;;;19.00;46.80;;;;;;5007682;28;20436;-94
2022/03/26 11:04:37;;;;;;;28.77;24.20;;;19.00;47.90;;;;;;5008131;28;20437;-96
2022/03/26 11:07:08;;;;;;;33.50;26.17;;;19.10;48.30;;;;;;5008428;28;20507;-96
2022/03/26 11:09:34;;;;;;;29.70;24.00;;;19.40;47.00;;;;;;5002913;28;20223;-95
2022/03/26 11:12:01;;;;;;;33.93;25.50;;;19.30;48.40;;;;;;5017870;28;20475;-96
2022/03/26 11:14:44;;;;;;;30.00;25.37;;;19.30;46.30;;;;;;4999135;28;20479;-94
2022/03/26 12:50:45;;;;;;;28.90;23.00;;;22.80;37.90;;;;;;4358182;23;20914;-94
2022/03/26 12:53:14;;;;;;;25.97;22.50;;;22.90;38.70;;;;;;4993098;28;20440;-93
2022/03/26 12:55:41;;;;;;;28.13;22.90;;;22.30;39.80;;;;;;4993253;28;24717;-95
2022/03/26 13:01:08;;;;;;;26.77;21.53;;;21.60;39.90;;;;;;5006515;28;20470;-96
2022/03/26 13:03:41;;;;;;;25.73;21.10;;;21.80;38.20;;;;;;5005011;28;20448;-96
2022/03/26 13:06:26;;;;;;;29.20;23.40;;;22.20;41.50;;;;;;5020332;28;20446;-96
2022/03/26 13:08:53;;;;;;;28.23;22.70;;;22.10;40.70;;;;;;5000656;28;20432;-96
2022/03/26 13:11:30;;;;;;;26.43;23.07;;;22.30;40.60;;;;;;5003980;28;20556;-96
2022/03/26 13:14:06;;;;;;;25.77;21.13;;;22.40;38.70;;;;;;5008920;28;20564;-96
2022/03/26 13:16:35;;;;;;;28.53;22.67;;;22.40;38.20;;;;;;5006448;28;20460;-96
2022/03/26 13:19:08;;;;;;;26.03;20.40;;;22.60;36.50;;;;;;5011965;28;20184;-96
2022/03/26 13:21:47;;;;;;;23.33;20.53;;;22.70;36.50;;;;;;5004646;28;20436;-96
2022/03/26 13:24:28;;;;;;;23.87;19.27;;;22.30;38.30;;;;;;5000309;28;20427;-96
2022/03/26 16:07:40;;;;;;;18.60;15.00;;;26.10;27.00;;;;;;5119781;23;20503;-96
2022/03/26 16:10:10;;;;;;;14.67;12.60;;;26.40;27.60;;;;;;5018652;28;21261;-96
2022/03/26 16:12:36;;;;;;;14.87;12.93;;;27.80;27.10;;;;;;5002300;28;20465;-96
2022/03/26 16:15:02;;;;;;;16.40;13.80;;;28.00;25.30;;;;;;4986719;28;20511;-96
2022/03/26 16:17:27;;;;;;;14.80;13.20;;;28.50;25.00;;;;;;4984927;28;20278;-96
2022/03/26 16:19:53;;;;;;;16.67;13.73;;;27.80;25.20;;;;;;4987508;28;20483;-96
2022/03/26 16:22:20;;;;;;;15.30;13.70;;;27.20;25.80;;;;;;4986734;28;20185;-96
2022/03/26 16:25:07;;;;;;;17.00;13.90;;;26.80;26.40;;;;;;4996386;28;20193;-96
2022/03/26 16:27:36;;;;;;;14.43;12.90;;;25.70;26.20;;;;;;4991074;28;20451;-95
2022/03/26 16:30:04;;;;;;;15.70;14.10;;;23.40;27.90;;;;;;4984626;28;21889;-94
2022/03/26 16:32:35;;;;;;;15.40;13.37;;;21.50;28.90;;;;;;4983017;28;20524;-96
2022/03/26 16:35:03;;;;;;;17.33;13.30;;;20.60;29.70;;;;;;4978402;28;20502;-92
2022/03/26 16:37:30;;;;;;;17.00;13.20;;;19.90;30.60;;;;;;4989783;28;20479;-96
2022/03/26 16:39:59;;;;;;;14.73;12.83;;;19.80;30.40;;;;;;4983883;28;20907;-93
2022/03/26 16:42:25;;;;;;;21.00;13.63;;;19.90;30.70;;;;;;4986251;28;21273;-95
2022/03/26 16:44:50;;;;;;;17.93;13.60;;;19.90;30.70;;;;;;4989575;28;20448;-93
2022/03/26 16:47:18;;;;;;;15.80;12.00;;;19.50;32.20;;;;;;4984934;28;20223;-93
2022/03/26 16:49:44;;;;;;;17.50;12.67;;;19.00;34.10;;;;;;4982303;28;20192;-94
2022/03/26 16:52:10;;;;;;;15.70;11.93;;;18.60;33.30;;;;;;5000870;28;20439;-95
2022/03/26 16:54:36;;;;;;;15.23;11.20;;;18.40;33.10;;;;;;4988250;28;20482;-92
2022/03/26 16:57:01;;;;;;;12.43;10.10;;;18.30;33.70;;;;;;4981181;28;20177;-93
2022/03/26 16:59:27;;;;;;;14.47;11.60;;;18.10;33.50;;;;;;4984498;28;20189;-93
2022/03/26 17:01:54;;;;;;;15.33;11.77;;;17.80;34.40;;;;;;4991818;28;20189;-94
2022/03/26 17:04:20;;;;;;;11.40;10.20;;;17.60;34.80;;;;;;4980170;28;20185;-93
2022/03/26 17:06:45;;;;;;;15.47;12.00;;;17.50;34.90;;;;;;4985071;28;20448;-93
2022/03/26 17:09:11;;;;;;;13.77;11.50;;;17.40;34.90;;;;;;4984164;28;20201;-92
2022/03/26 17:11:36;;;;;;;16.17;12.10;;;17.30;35.50;;;;;;4985903;28;20215;-93
2022/03/26 17:14:03;;;;;;;15.00;10.40;;;17.10;35.90;;;;;;4983454;28;20229;-96
2022/03/26 17:16:33;;;;;;;14.57;11.00;;;16.90;36.20;;;;;;4998194;28;20200;-93
2022/03/26 17:18:59;;;;;;;16.90;11.50;;;16.70;36.50;;;;;;4984341;28;20456;-91
2022/03/26 17:21:25;;;;;;;16.73;11.13;;;16.60;36.90;;;;;;4984876;28;20444;-93
2022/03/26 17:23:50;;;;;;;15.33;11.97;;;16.60;37.20;;;;;;4987853;28;20579;-92
2022/03/26 17:26:16;;;;;;;14.50;11.10;;;16.60;37.10;;;;;;4986698;28;20236;-88
2022/03/26 17:28:42;;;;;;;17.93;11.93;;;16.50;37.20;;;;;;4987926;28;20192;-89
2022/03/26 17:31:08;;;;;;;14.80;11.97;;;16.30;37.60;;;;;;4988187;28;20768;-92
2022/03/26 17:33:33;;;;;;;14.47;12.20;;;16.20;37.60;;;;;;4985539;28;20525;-93
2022/03/26 17:35:59;;;;;;;15.07;11.23;;;16.10;37.80;;;;;;4985432;28;20276;-92
2022/03/26 17:38:25;;;;;;;13.93;11.70;;;15.90;38.20;;;;;;4989094;28;20602;-92
2022/03/26 17:40:50;;;;;;;18.80;11.43;;;15.90;38.20;;;;;;4990123;28;20222;-94
2022/03/26 17:43:16;;;;;;;21.20;16.80;;;15.90;38.10;;;;;;4986429;28;20176;-93
2022/03/26 17:45:42;;;;;;;15.07;11.60;;;15.70;38.40;;;;;;4987249;28;21024;-93
2022/03/26 17:48:08;;;;;;;15.07;11.83;;;15.60;38.90;;;;;;4986155;28;20318;-91
2022/03/26 17:50:35;;;;;;;16.07;11.33;;;15.40;38.90;;;;;;4985495;28;20467;-92